sensor_id;sensor_type;location;lat;lon;timestamp;temperature;humidity
418;DHT22;49;48.530;9.200;2024-01-11T00:00:06;8.30;10.00
418;DHT22;49;48.530;9.200;2024-01-11T00:02:34;8.00;10.50
418;DHT22;49;48.530;9.200;2024-01-11T00:05:04;8.00;12.80
418;DHT22;49;48.530;9.200;2024-01-11T00:07:32;8.10;10.50
418;DHT22;49;48.530;9.200;2024-01-11T00:10:00;7.60;10.60
418;DHT22;49;48.530;9.200;2024-01-11T00:12:31;7.20;9.70
418;DHT22;49;48.530;9.200;2024-01-11T00:14:58;7.10;12.00
418;DHT22;49;48.530;9.200;2024-01-11T00:17:26;7.60;13.00
418;DHT22;49;48.530;9.200;2024-01-11T00:19:53;7.10;12.30
418;DHT22;49;48.530;9.200;2024-01-11T00:22:21;7.60;11.90
418;DHT22;49;48.530;9.200;2024-01-11T00:24:51;7.80;14.20
418;DHT22;49;48.530;9.200;2024-01-11T00:27:18;8.10;12.90
418;DHT22;49;48.530;9.200;2024-01-11T00:29:46;8.60;13.20
418;DHT22;49;48.530;9.200;2024-01-11T00:32:13;8.50;11.00
418;DHT22;49;48.530;9.200;2024-01-11T00:34:40;8.20;12.40
418;DHT22;49;48.530;9.200;2024-01-11T00:37:07;8.20;10.60
418;DHT22;49;48.530;9.200;2024-01-11T00:39:34;8.30;12.60
418;DHT22;49;48.530;9.200;2024-01-11T00:42:01;8.50;13.00
418;DHT22;49;48.530;9.200;2024-01-11T00:44:29;8.30;10.90
418;DHT22;49;48.530;9.200;2024-01-11T00:46:58;8.40;11.90
418;DHT22;49;48.530;9.200;2024-01-11T00:49:25;7.80;12.70
418;DHT22;49;48.530;9.200;2024-01-11T00:51:52;7.80;9.80
418;DHT22;49;48.530;9.200;2024-01-11T00:54:19;7.30;10.90
418;DHT22;49;48.530;9.200;2024-01-11T00:56:47;8.00;13.60
418;DHT22;49;48.530;9.200;2024-01-11T00:59:14;7.60;11.40
418;DHT22;49;48.530;9.200;2024-01-11T01:01:47;8.00;13.40
418;DHT22;49;48.530;9.200;2024-01-11T01:04:16;7.90;12.40
418;DHT22;49;48.530;9.200;2024-01-11T01:06:43;8.00;9.00
418;DHT22;49;48.530;9.200;2024-01-11T01:09:10;8.10;13.80
418;DHT22;49;48.530;9.200;2024-01-11T01:11:39;8.30;10.50
418;DHT22;49;48.530;9.200;2024-01-11T01:14:06;7.50;9.00
418;DHT22;49;48.530;9.200;2024-01-11T01:16:33;7.20;10.10
418;DHT22;49;48.530;9.200;2024-01-11T01:19:00;6.90;11.50
418;DHT22;49;48.530;9.200;2024-01-11T01:21:28;7.50;13.30
418;DHT22;49;48.530;9.200;2024-01-11T01:23:58;6.90;12.50
418;DHT22;49;48.530;9.200;2024-01-11T01:26:25;7.70;13.10
418;DHT22;49;48.530;9.200;2024-01-11T01:28:55;7.50;10.90
418;DHT22;49;48.530;9.200;2024-01-11T01:31:22;7.50;14.00
418;DHT22;49;48.530;9.200;2024-01-11T01:33:49;8.00;13.00
418;DHT22;49;48.530;9.200;2024-01-11T01:36:16;7.90;7.90
418;DHT22;49;48.530;9.200;2024-01-11T01:38:44;7.30;10.00
418;DHT22;49;48.530;9.200;2024-01-11T01:41:12;7.40;11.60
418;DHT22;49;48.530;9.200;2024-01-11T01:43:39;7.40;11.90
418;DHT22;49;48.530;9.200;2024-01-11T01:46:06;7.50;11.30
418;DHT22;49;48.530;9.200;2024-01-11T01:48:33;7.70;12.30
418;DHT22;49;48.530;9.200;2024-01-11T01:51:03;8.00;13.30
418;DHT22;49;48.530;9.200;2024-01-11T01:53:30;8.00;12.40
418;DHT22;49;48.530;9.200;2024-01-11T01:56:00;7.90;11.30
418;DHT22;49;48.530;9.200;2024-01-11T01:58:27;7.50;11.60
418;DHT22;49;48.530;9.200;2024-01-11T02:00:55;7.80;12.20
418;DHT22;49;48.530;9.200;2024-01-11T02:03:23;7.80;12.30
418;DHT22;49;48.530;9.200;2024-01-11T02:05:51;7.90;12.10
418;DHT22;49;48.530;9.200;2024-01-11T02:08:22;7.40;7.70
418;DHT22;49;48.530;9.200;2024-01-11T02:10:49;7.10;9.90
418;DHT22;49;48.530;9.200;2024-01-11T02:13:20;6.90;11.20
418;DHT22;49;48.530;9.200;2024-01-11T02:15:47;6.80;12.80
418;DHT22;49;48.530;9.200;2024-01-11T02:20:48;6.60;8.30
418;DHT22;49;48.530;9.200;2024-01-11T02:23:19;6.70;12.90
418;DHT22;49;48.530;9.200;2024-01-11T02:25:49;7.20;15.10
418;DHT22;49;48.530;9.200;2024-01-11T02:28:17;7.50;14.20
418;DHT22;49;48.530;9.200;2024-01-11T02:30:44;7.60;12.10
418;DHT22;49;48.530;9.200;2024-01-11T02:33:12;7.30;11.60
418;DHT22;49;48.530;9.200;2024-01-11T02:35:42;7.60;12.70
418;DHT22;49;48.530;9.200;2024-01-11T02:40:43;7.40;10.10
418;DHT22;49;48.530;9.200;2024-01-11T02:43:22;7.10;12.80
418;DHT22;49;48.530;9.200;2024-01-11T02:45:49;6.90;9.80
418;DHT22;49;48.530;9.200;2024-01-11T02:48:17;7.30;11.30
418;DHT22;49;48.530;9.200;2024-01-11T02:50:44;7.60;13.20
418;DHT22;49;48.530;9.200;2024-01-11T02:53:15;7.80;12.80
418;DHT22;49;48.530;9.200;2024-01-11T02:55:42;7.90;12.30
418;DHT22;49;48.530;9.200;2024-01-11T02:58:08;8.00;11.40
418;DHT22;49;48.530;9.200;2024-01-11T03:00:38;7.50;10.90
418;DHT22;49;48.530;9.200;2024-01-11T03:03:06;7.50;10.10
418;DHT22;49;48.530;9.200;2024-01-11T03:05:33;7.50;13.20
418;DHT22;49;48.530;9.200;2024-01-11T03:08:00;7.70;12.70
418;DHT22;49;48.530;9.200;2024-01-11T03:10:27;8.00;11.70
418;DHT22;49;48.530;9.200;2024-01-11T03:12:56;8.00;11.90
418;DHT22;49;48.530;9.200;2024-01-11T03:15:27;8.10;11.80
418;DHT22;49;48.530;9.200;2024-01-11T03:17:57;8.10;11.20
418;DHT22;49;48.530;9.200;2024-01-11T03:20:24;8.00;9.40
418;DHT22;49;48.530;9.200;2024-01-11T03:22:54;7.60;10.20
418;DHT22;49;48.530;9.200;2024-01-11T03:25:22;7.10;5.20
418;DHT22;49;48.530;9.200;2024-01-11T03:27:49;6.90;11.10
418;DHT22;49;48.530;9.200;2024-01-11T03:30:16;7.00;11.90
418;DHT22;49;48.530;9.200;2024-01-11T03:32:43;7.40;12.80
418;DHT22;49;48.530;9.200;2024-01-11T03:35:12;7.60;13.40
418;DHT22;49;48.530;9.200;2024-01-11T03:37:42;7.60;11.80
418;DHT22;49;48.530;9.200;2024-01-11T03:40:09;7.90;12.60
418;DHT22;49;48.530;9.200;2024-01-11T03:42:37;7.90;11.20
418;DHT22;49;48.530;9.200;2024-01-11T03:45:04;8.00;12.10
418;DHT22;49;48.530;9.200;2024-01-11T03:47:32;8.10;11.80
418;DHT22;49;48.530;9.200;2024-01-11T03:49:59;8.00;10.60
418;DHT22;49;48.530;9.200;2024-01-11T03:52:29;7.70;10.30
418;DHT22;49;48.530;9.200;2024-01-11T03:54:56;7.20;7.70
418;DHT22;49;48.530;9.200;2024-01-11T03:57:23;6.80;9.70
418;DHT22;49;48.530;9.200;2024-01-11T03:59:50;7.00;13.30
418;DHT22;49;48.530;9.200;2024-01-11T04:02:17;7.30;13.20
418;DHT22;49;48.530;9.200;2024-01-11T04:04:47;7.50;11.50
418;DHT22;49;48.530;9.200;2024-01-11T04:07:14;7.80;11.90
418;DHT22;49;48.530;9.200;2024-01-11T04:09:44;8.00;12.30
418;DHT22;49;48.530;9.200;2024-01-11T04:12:10;8.00;10.50
418;DHT22;49;48.530;9.200;2024-01-11T04:14:38;7.90;11.90
418;DHT22;49;48.530;9.200;2024-01-11T04:17:06;8.10;11.20
418;DHT22;49;48.530;9.200;2024-01-11T04:19:33;8.10;10.60
418;DHT22;49;48.530;9.200;2024-01-11T04:22:00;8.30;11.90
418;DHT22;49;48.530;9.200;2024-01-11T04:24:27;7.60;9.10
418;DHT22;49;48.530;9.200;2024-01-11T04:26:56;7.30;9.60
418;DHT22;49;48.530;9.200;2024-01-11T04:29:23;7.40;11.10
418;DHT22;49;48.530;9.200;2024-01-11T04:31:50;7.30;8.10
418;DHT22;49;48.530;9.200;2024-01-11T04:34:17;7.20;10.60
418;DHT22;49;48.530;9.200;2024-01-11T04:36:44;7.30;10.40
418;DHT22;49;48.530;9.200;2024-01-11T04:39:11;7.20;8.40
418;DHT22;49;48.530;9.200;2024-01-11T04:41:38;6.60;10.50
418;DHT22;49;48.530;9.200;2024-01-11T04:44:08;6.00;9.20
418;DHT22;49;48.530;9.200;2024-01-11T04:46:44;6.30;11.50
418;DHT22;49;48.530;9.200;2024-01-11T04:49:11;6.20;12.90
418;DHT22;49;48.530;9.200;2024-01-11T04:51:38;6.20;10.10
418;DHT22;49;48.530;9.200;2024-01-11T04:54:05;5.30;9.30
418;DHT22;49;48.530;9.200;2024-01-11T04:56:32;5.30;10.50
418;DHT22;49;48.530;9.200;2024-01-11T04:58:59;5.80;13.60
418;DHT22;49;48.530;9.200;2024-01-11T05:01:27;5.80;13.20
418;DHT22;49;48.530;9.200;2024-01-11T05:03:54;6.00;13.30
418;DHT22;49;48.530;9.200;2024-01-11T05:06:22;5.80;10.90
418;DHT22;49;48.530;9.200;2024-01-11T05:08:51;5.70;10.40
418;DHT22;49;48.530;9.200;2024-01-11T05:11:18;6.10;11.40
418;DHT22;49;48.530;9.200;2024-01-11T05:13:45;6.20;13.50
418;DHT22;49;48.530;9.200;2024-01-11T05:16:20;5.90;10.90
418;DHT22;49;48.530;9.200;2024-01-11T05:18:49;5.60;8.90
418;DHT22;49;48.530;9.200;2024-01-11T05:21:16;5.50;12.40
418;DHT22;49;48.530;9.200;2024-01-11T05:23:43;5.50;10.20
418;DHT22;49;48.530;9.200;2024-01-11T05:26:10;5.30;13.00
418;DHT22;49;48.530;9.200;2024-01-11T05:28:37;5.70;9.80
418;DHT22;49;48.530;9.200;2024-01-11T05:31:05;5.40;13.20
418;DHT22;49;48.530;9.200;2024-01-11T05:33:32;6.20;15.30
418;DHT22;49;48.530;9.200;2024-01-11T05:36:01;6.40;13.30
418;DHT22;49;48.530;9.200;2024-01-11T05:38:28;5.50;8.80
418;DHT22;49;48.530;9.200;2024-01-11T05:40:54;5.00;9.20
418;DHT22;49;48.530;9.200;2024-01-11T05:43:22;4.20;6.50
418;DHT22;49;48.530;9.200;2024-01-11T05:45:49;4.10;12.60
418;DHT22;49;48.530;9.200;2024-01-11T05:48:16;3.80;8.30
418;DHT22;49;48.530;9.200;2024-01-11T05:50:43;3.40;9.70
418;DHT22;49;48.530;9.200;2024-01-11T05:53:11;2.90;13.10
418;DHT22;49;48.530;9.200;2024-01-11T05:55:38;3.50;17.00
418;DHT22;49;48.530;9.200;2024-01-11T05:58:05;3.70;9.80
418;DHT22;49;48.530;9.200;2024-01-11T06:00:32;3.70;10.10
418;DHT22;49;48.530;9.200;2024-01-11T06:02:59;4.00;10.40
418;DHT22;49;48.530;9.200;2024-01-11T06:05:26;3.80;13.80
418;DHT22;49;48.530;9.200;2024-01-11T06:07:53;4.30;16.40
418;DHT22;49;48.530;9.200;2024-01-11T06:10:21;4.00;12.60
418;DHT22;49;48.530;9.200;2024-01-11T06:12:48;3.70;13.10
418;DHT22;49;48.530;9.200;2024-01-11T06:15:15;3.50;10.60
418;DHT22;49;48.530;9.200;2024-01-11T06:17:42;3.20;13.40
418;DHT22;49;48.530;9.200;2024-01-11T06:20:10;2.90;8.00
418;DHT22;49;48.530;9.200;2024-01-11T06:22:37;2.90;13.20
418;DHT22;49;48.530;9.200;2024-01-11T06:25:05;3.60;15.10
418;DHT22;49;48.530;9.200;2024-01-11T06:27:33;4.30;18.70
418;DHT22;49;48.530;9.200;2024-01-11T06:30:00;3.90;7.80
418;DHT22;49;48.530;9.200;2024-01-11T06:32:27;3.40;8.10
418;DHT22;49;48.530;9.200;2024-01-11T06:34:54;2.50;9.20
418;DHT22;49;48.530;9.200;2024-01-11T06:37:21;3.30;20.20
418;DHT22;49;48.530;9.200;2024-01-11T06:39:48;4.10;14.90
418;DHT22;49;48.530;9.200;2024-01-11T06:42:15;4.60;13.90
418;DHT22;49;48.530;9.200;2024-01-11T06:44:43;5.00;18.70
418;DHT22;49;48.530;9.200;2024-01-11T06:47:10;5.40;13.40
418;DHT22;49;48.530;9.200;2024-01-11T06:49:38;5.10;13.90
418;DHT22;49;48.530;9.200;2024-01-11T06:52:05;5.40;15.80
418;DHT22;49;48.530;9.200;2024-01-11T06:54:32;5.70;10.70
418;DHT22;49;48.530;9.200;2024-01-11T06:56:59;5.30;10.40
418;DHT22;49;48.530;9.200;2024-01-11T06:59:26;4.00;6.20
418;DHT22;49;48.530;9.200;2024-01-11T07:01:54;2.90;7.20
418;DHT22;49;48.530;9.200;2024-01-11T07:04:21;2.60;11.70
418;DHT22;49;48.530;9.200;2024-01-11T07:06:48;2.30;9.10
418;DHT22;49;48.530;9.200;2024-01-11T07:09:15;2.00;9.90
418;DHT22;49;48.530;9.200;2024-01-11T07:11:42;2.90;20.90
418;DHT22;49;48.530;9.200;2024-01-11T07:14:09;3.90;13.30
418;DHT22;49;48.530;9.200;2024-01-11T07:16:36;3.60;9.00
418;DHT22;49;48.530;9.200;2024-01-11T07:19:04;3.10;13.10
418;DHT22;49;48.530;9.200;2024-01-11T07:21:31;3.60;16.10
418;DHT22;49;48.530;9.200;2024-01-11T07:23:58;4.20;19.90
418;DHT22;49;48.530;9.200;2024-01-11T07:26:25;4.60;17.40
418;DHT22;49;48.530;9.200;2024-01-11T07:28:53;4.30;8.60
418;DHT22;49;48.530;9.200;2024-01-11T07:31:21;3.80;11.00
418;DHT22;49;48.530;9.200;2024-01-11T07:33:48;3.70;13.70
418;DHT22;49;48.530;9.200;2024-01-11T07:36:17;3.90;13.80
418;DHT22;49;48.530;9.200;2024-01-11T07:38:44;4.80;20.90
418;DHT22;49;48.530;9.200;2024-01-11T07:41:11;4.50;8.70
418;DHT22;49;48.530;9.200;2024-01-11T07:43:38;3.60;10.30
418;DHT22;49;48.530;9.200;2024-01-11T07:46:04;3.70;13.20
418;DHT22;49;48.530;9.200;2024-01-11T07:48:33;4.20;11.00
418;DHT22;49;48.530;9.200;2024-01-11T07:51:00;4.40;14.40
418;DHT22;49;48.530;9.200;2024-01-11T07:53:29;4.20;12.90
418;DHT22;49;48.530;9.200;2024-01-11T07:55:57;3.50;9.70
418;DHT22;49;48.530;9.200;2024-01-11T07:58:24;3.40;10.50
418;DHT22;49;48.530;9.200;2024-01-11T08:00:51;2.90;9.80
418;DHT22;49;48.530;9.200;2024-01-11T08:03:18;2.40;11.30
418;DHT22;49;48.530;9.200;2024-01-11T08:05:45;2.40;12.90
418;DHT22;49;48.530;9.200;2024-01-11T08:08:11;2.50;10.70
418;DHT22;49;48.530;9.200;2024-01-11T08:10:40;2.70;15.20
418;DHT22;49;48.530;9.200;2024-01-11T08:13:07;2.60;9.90
418;DHT22;49;48.530;9.200;2024-01-11T08:15:35;2.40;11.40
418;DHT22;49;48.530;9.200;2024-01-11T08:18:04;2.70;13.30
418;DHT22;49;48.530;9.200;2024-01-11T08:20:31;2.40;13.00
418;DHT22;49;48.530;9.200;2024-01-11T08:22:58;3.00;15.40
418;DHT22;49;48.530;9.200;2024-01-11T08:25:25;3.20;17.10
418;DHT22;49;48.530;9.200;2024-01-11T08:27:53;3.30;15.70
418;DHT22;49;48.530;9.200;2024-01-11T08:30:20;4.00;16.70
418;DHT22;49;48.530;9.200;2024-01-11T08:32:47;4.50;15.30
418;DHT22;49;48.530;9.200;2024-01-11T08:35:14;4.00;8.60
418;DHT22;49;48.530;9.200;2024-01-11T08:37:42;3.60;9.50
418;DHT22;49;48.530;9.200;2024-01-11T08:40:09;2.90;10.00
418;DHT22;49;48.530;9.200;2024-01-11T08:42:36;2.70;11.90
418;DHT22;49;48.530;9.200;2024-01-11T08:45:06;3.30;19.10
418;DHT22;49;48.530;9.200;2024-01-11T08:47:33;4.10;16.80
418;DHT22;49;48.530;9.200;2024-01-11T08:50:00;4.30;10.30
418;DHT22;49;48.530;9.200;2024-01-11T08:52:31;3.80;9.80
418;DHT22;49;48.530;9.200;2024-01-11T08:54:58;3.40;11.50
418;DHT22;49;48.530;9.200;2024-01-11T08:57:25;3.20;10.90
418;DHT22;49;48.530;9.200;2024-01-11T08:59:52;3.40;10.30
418;DHT22;49;48.530;9.200;2024-01-11T09:02:21;3.20;11.60
418;DHT22;49;48.530;9.200;2024-01-11T09:04:48;3.40;10.50
418;DHT22;49;48.530;9.200;2024-01-11T09:07:15;3.00;10.60
418;DHT22;49;48.530;9.200;2024-01-11T09:09:42;2.90;12.30
418;DHT22;49;48.530;9.200;2024-01-11T09:12:10;2.70;11.40
418;DHT22;49;48.530;9.200;2024-01-11T09:14:37;2.70;14.20
418;DHT22;49;48.530;9.200;2024-01-11T09:17:05;2.90;12.20
418;DHT22;49;48.530;9.200;2024-01-11T09:19:33;3.20;13.90
418;DHT22;49;48.530;9.200;2024-01-11T09:22:00;3.40;12.70
418;DHT22;49;48.530;9.200;2024-01-11T09:24:28;3.50;18.40
418;DHT22;49;48.530;9.200;2024-01-11T09:26:55;4.20;15.10
418;DHT22;49;48.530;9.200;2024-01-11T09:29:21;4.50;15.10
418;DHT22;49;48.530;9.200;2024-01-11T09:31:48;4.80;10.70
418;DHT22;49;48.530;9.200;2024-01-11T09:34:15;4.20;10.40
418;DHT22;49;48.530;9.200;2024-01-11T09:36:44;4.00;10.80
418;DHT22;49;48.530;9.200;2024-01-11T09:39:11;3.60;11.90
418;DHT22;49;48.530;9.200;2024-01-11T09:41:42;3.80;12.30
418;DHT22;49;48.530;9.200;2024-01-11T09:44:10;3.80;12.40
418;DHT22;49;48.530;9.200;2024-01-11T09:46:37;4.00;13.40
418;DHT22;49;48.530;9.200;2024-01-11T09:49:04;4.60;13.60
418;DHT22;49;48.530;9.200;2024-01-11T09:51:34;4.40;13.00
418;DHT22;49;48.530;9.200;2024-01-11T09:54:05;4.90;15.80
418;DHT22;49;48.530;9.200;2024-01-11T09:56:33;4.70;14.40
418;DHT22;49;48.530;9.200;2024-01-11T09:59:01;4.90;13.20
418;DHT22;49;48.530;9.200;2024-01-11T10:01:31;5.20;14.10
418;DHT22;49;48.530;9.200;2024-01-11T10:03:58;5.40;13.40
418;DHT22;49;48.530;9.200;2024-01-11T10:06:26;5.30;12.20
418;DHT22;49;48.530;9.200;2024-01-11T10:08:54;5.50;13.80
418;DHT22;49;48.530;9.200;2024-01-11T10:11:22;6.10;12.00
418;DHT22;49;48.530;9.200;2024-01-11T10:13:49;5.70;9.00
418;DHT22;49;48.530;9.200;2024-01-11T10:16:22;5.50;10.50
418;DHT22;49;48.530;9.200;2024-01-11T10:18:54;5.00;10.00
418;DHT22;49;48.530;9.200;2024-01-11T10:21:21;4.20;11.40
418;DHT22;49;48.530;9.200;2024-01-11T10:23:49;4.10;18.40
418;DHT22;49;48.530;9.200;2024-01-11T10:26:16;4.60;16.60
418;DHT22;49;48.530;9.200;2024-01-11T10:28:46;4.60;19.40
418;DHT22;49;48.530;9.200;2024-01-11T10:31:13;3.90;12.90
418;DHT22;49;48.530;9.200;2024-01-11T10:33:40;3.90;16.10
418;DHT22;49;48.530;9.200;2024-01-11T10:36:08;4.20;18.10
418;DHT22;49;48.530;9.200;2024-01-11T10:38:36;4.50;13.50
418;DHT22;49;48.530;9.200;2024-01-11T10:41:05;4.20;12.70
418;DHT22;49;48.530;9.200;2024-01-11T10:43:32;4.20;14.00
418;DHT22;49;48.530;9.200;2024-01-11T10:46:04;4.50;13.20
418;DHT22;49;48.530;9.200;2024-01-11T10:48:37;4.30;11.90
418;DHT22;49;48.530;9.200;2024-01-11T10:51:07;4.40;11.70
418;DHT22;49;48.530;9.200;2024-01-11T10:53:39;4.30;12.30
418;DHT22;49;48.530;9.200;2024-01-11T10:56:08;4.80;14.40
418;DHT22;49;48.530;9.200;2024-01-11T10:58:40;4.60;10.30
418;DHT22;49;48.530;9.200;2024-01-11T11:01:10;4.80;15.60
418;DHT22;49;48.530;9.200;2024-01-11T11:03:38;5.00;12.70
418;DHT22;49;48.530;9.200;2024-01-11T11:06:06;5.20;11.50
418;DHT22;49;48.530;9.200;2024-01-11T11:08:34;4.70;10.00
418;DHT22;49;48.530;9.200;2024-01-11T11:11:03;4.60;11.80
418;DHT22;49;48.530;9.200;2024-01-11T11:13:32;4.40;11.90
418;DHT22;49;48.530;9.200;2024-01-11T11:16:00;4.50;12.00
418;DHT22;49;48.530;9.200;2024-01-11T11:18:31;4.60;11.20
418;DHT22;49;48.530;9.200;2024-01-11T11:20:59;4.60;12.10
418;DHT22;49;48.530;9.200;2024-01-11T11:23:25;4.30;11.40
418;DHT22;49;48.530;9.200;2024-01-11T11:25:54;4.20;16.80
418;DHT22;49;48.530;9.200;2024-01-11T11:28:22;5.20;20.10
418;DHT22;49;48.530;9.200;2024-01-11T11:30:51;5.50;15.80
418;DHT22;49;48.530;9.200;2024-01-11T11:33:20;5.00;10.10
418;DHT22;49;48.530;9.200;2024-01-11T11:35:51;4.70;11.20
418;DHT22;49;48.530;9.200;2024-01-11T11:38:20;4.80;12.00
418;DHT22;49;48.530;9.200;2024-01-11T11:40:47;4.50;19.60
418;DHT22;49;48.530;9.200;2024-01-11T11:43:16;5.10;14.60
418;DHT22;49;48.530;9.200;2024-01-11T11:45:45;5.10;11.60
418;DHT22;49;48.530;9.200;2024-01-11T11:51:19;4.40;11.10
418;DHT22;49;48.530;9.200;2024-01-11T11:53:47;4.40;12.20
418;DHT22;49;48.530;9.200;2024-01-11T11:56:17;4.60;11.70
418;DHT22;49;48.530;9.200;2024-01-11T11:58:44;4.70;12.30
418;DHT22;49;48.530;9.200;2024-01-11T12:01:13;4.50;12.20
418;DHT22;49;48.530;9.200;2024-01-11T12:03:41;4.60;12.10
418;DHT22;49;48.530;9.200;2024-01-11T12:06:12;4.40;12.40
418;DHT22;49;48.530;9.200;2024-01-11T12:08:43;4.60;14.00
418;DHT22;49;48.530;9.200;2024-01-11T12:11:13;4.90;14.60
418;DHT22;49;48.530;9.200;2024-01-11T12:13:40;5.50;11.30
418;DHT22;49;48.530;9.200;2024-01-11T12:16:07;5.50;14.20
418;DHT22;49;48.530;9.200;2024-01-11T12:18:34;5.60;11.20
418;DHT22;49;48.530;9.200;2024-01-11T12:21:01;5.60;10.10
418;DHT22;49;48.530;9.200;2024-01-11T12:23:28;5.50;10.10
418;DHT22;49;48.530;9.200;2024-01-11T12:25:58;5.50;9.60
418;DHT22;49;48.530;9.200;2024-01-11T12:28:25;5.50;9.10
418;DHT22;49;48.530;9.200;2024-01-11T12:30:52;6.20;17.80
418;DHT22;49;48.530;9.200;2024-01-11T12:33:19;6.70;14.60
418;DHT22;49;48.530;9.200;2024-01-11T12:35:46;6.50;11.00
418;DHT22;49;48.530;9.200;2024-01-11T12:38:13;6.10;7.60
418;DHT22;49;48.530;9.200;2024-01-11T12:40:41;5.70;8.80
418;DHT22;49;48.530;9.200;2024-01-11T12:43:11;5.70;10.60
418;DHT22;49;48.530;9.200;2024-01-11T12:45:38;5.60;9.40
418;DHT22;49;48.530;9.200;2024-01-11T12:48:07;5.70;10.70
418;DHT22;49;48.530;9.200;2024-01-11T12:50:35;5.40;8.80
418;DHT22;49;48.530;9.200;2024-01-11T12:53:09;5.10;10.40
418;DHT22;49;48.530;9.200;2024-01-11T12:55:37;4.80;10.20
418;DHT22;49;48.530;9.200;2024-01-11T12:58:05;3.90;12.40
418;DHT22;49;48.530;9.200;2024-01-11T13:00:34;3.90;13.10
418;DHT22;49;48.530;9.200;2024-01-11T13:03:01;3.80;13.80
418;DHT22;49;48.530;9.200;2024-01-11T13:05:29;3.70;16.50
418;DHT22;49;48.530;9.200;2024-01-11T13:08:00;4.00;16.30
418;DHT22;49;48.530;9.200;2024-01-11T13:10:28;4.60;14.30
418;DHT22;49;48.530;9.200;2024-01-11T13:12:57;4.60;13.30
418;DHT22;49;48.530;9.200;2024-01-11T13:15:24;4.40;16.00
418;DHT22;49;48.530;9.200;2024-01-11T13:17:52;4.30;13.00
418;DHT22;49;48.530;9.200;2024-01-11T13:20:20;4.30;18.60
418;DHT22;49;48.530;9.200;2024-01-11T13:22:47;4.70;15.90
418;DHT22;49;48.530;9.200;2024-01-11T13:25:13;5.30;12.60
418;DHT22;49;48.530;9.200;2024-01-11T13:27:40;5.80;11.90
418;DHT22;49;48.530;9.200;2024-01-11T13:30:07;5.80;10.20
418;DHT22;49;48.530;9.200;2024-01-11T13:32:34;6.20;13.30
418;DHT22;49;48.530;9.200;2024-01-11T13:35:03;6.60;10.30
418;DHT22;49;48.530;9.200;2024-01-11T13:37:31;6.50;10.10
418;DHT22;49;48.530;9.200;2024-01-11T13:39:57;6.00;10.30
418;DHT22;49;48.530;9.200;2024-01-11T13:42:24;5.70;9.00
418;DHT22;49;48.530;9.200;2024-01-11T13:44:51;5.40;10.40
418;DHT22;49;48.530;9.200;2024-01-11T13:47:18;6.20;18.40
418;DHT22;49;48.530;9.200;2024-01-11T13:49:45;6.60;11.80
418;DHT22;49;48.530;9.200;2024-01-11T13:52:14;6.50;9.50
418;DHT22;49;48.530;9.200;2024-01-11T13:54:41;6.60;10.60
418;DHT22;49;48.530;9.200;2024-01-11T13:57:09;6.70;8.90
418;DHT22;49;48.530;9.200;2024-01-11T13:59:36;5.60;8.90
418;DHT22;49;48.530;9.200;2024-01-11T14:02:03;5.00;12.10
418;DHT22;49;48.530;9.200;2024-01-11T14:04:30;5.80;14.70
418;DHT22;49;48.530;9.200;2024-01-11T14:06:56;6.20;11.90
418;DHT22;49;48.530;9.200;2024-01-11T14:09:25;5.70;9.00
418;DHT22;49;48.530;9.200;2024-01-11T14:11:52;5.50;11.10
418;DHT22;49;48.530;9.200;2024-01-11T14:14:18;5.80;17.50
418;DHT22;49;48.530;9.200;2024-01-11T14:16:46;6.10;10.40
418;DHT22;49;48.530;9.200;2024-01-11T14:19:13;5.90;9.70
418;DHT22;49;48.530;9.200;2024-01-11T14:21:40;5.70;13.00
418;DHT22;49;48.530;9.200;2024-01-11T14:24:06;6.20;10.60
418;DHT22;49;48.530;9.200;2024-01-11T14:26:35;6.40;11.90
418;DHT22;49;48.530;9.200;2024-01-11T14:29:03;6.30;8.60
418;DHT22;49;48.530;9.200;2024-01-11T14:31:30;6.00;10.30
418;DHT22;49;48.530;9.200;2024-01-11T14:33:57;6.10;15.20
418;DHT22;49;48.530;9.200;2024-01-11T14:36:24;6.30;12.00
418;DHT22;49;48.530;9.200;2024-01-11T14:38:51;6.30;8.20
418;DHT22;49;48.530;9.200;2024-01-11T14:41:18;5.70;8.90
418;DHT22;49;48.530;9.200;2024-01-11T14:43:47;4.60;10.90
418;DHT22;49;48.530;9.200;2024-01-11T14:46:14;4.80;11.40
418;DHT22;49;48.530;9.200;2024-01-11T14:48:41;5.30;16.40
418;DHT22;49;48.530;9.200;2024-01-11T14:51:08;5.50;11.90
418;DHT22;49;48.530;9.200;2024-01-11T14:53:36;5.30;11.00
418;DHT22;49;48.530;9.200;2024-01-11T14:56:04;5.30;10.60
418;DHT22;49;48.530;9.200;2024-01-11T14:58:31;5.20;13.40
418;DHT22;49;48.530;9.200;2024-01-11T15:00:59;5.20;11.20
418;DHT22;49;48.530;9.200;2024-01-11T15:03:26;5.40;13.60
418;DHT22;49;48.530;9.200;2024-01-11T15:05:53;5.50;10.10
418;DHT22;49;48.530;9.200;2024-01-11T15:08:20;5.70;10.40
418;DHT22;49;48.530;9.200;2024-01-11T15:10:47;5.70;9.40
418;DHT22;49;48.530;9.200;2024-01-11T15:13:15;5.60;8.90
418;DHT22;49;48.530;9.200;2024-01-11T15:15:42;5.50;9.30
418;DHT22;49;48.530;9.200;2024-01-11T15:18:10;5.40;9.40
418;DHT22;49;48.530;9.200;2024-01-11T15:20:37;5.40;9.70
418;DHT22;49;48.530;9.200;2024-01-11T15:23:04;5.40;10.60
418;DHT22;49;48.530;9.200;2024-01-11T15:25:31;5.40;14.80
418;DHT22;49;48.530;9.200;2024-01-11T15:27:58;5.40;10.40
418;DHT22;49;48.530;9.200;2024-01-11T15:30:25;5.80;16.60
418;DHT22;49;48.530;9.200;2024-01-11T15:32:52;6.30;17.70
418;DHT22;49;48.530;9.200;2024-01-11T15:35:20;6.30;15.40
418;DHT22;49;48.530;9.200;2024-01-11T15:37:47;5.90;11.80
418;DHT22;49;48.530;9.200;2024-01-11T15:40:15;5.80;10.40
418;DHT22;49;48.530;9.200;2024-01-11T15:42:42;6.00;18.30
418;DHT22;49;48.530;9.200;2024-01-11T15:45:09;5.90;15.70
418;DHT22;49;48.530;9.200;2024-01-11T15:47:37;5.80;12.90
418;DHT22;49;48.530;9.200;2024-01-11T15:50:05;5.50;10.70
418;DHT22;49;48.530;9.200;2024-01-11T15:52:38;5.40;16.40
418;DHT22;49;48.530;9.200;2024-01-11T15:55:05;5.30;13.40
418;DHT22;49;48.530;9.200;2024-01-11T15:57:34;5.60;13.50
418;DHT22;49;48.530;9.200;2024-01-11T16:00:01;6.00;21.10
418;DHT22;49;48.530;9.200;2024-01-11T16:02:29;6.40;12.80
418;DHT22;49;48.530;9.200;2024-01-11T16:04:57;6.40;18.20
418;DHT22;49;48.530;9.200;2024-01-11T16:07:24;6.90;16.50
418;DHT22;49;48.530;9.200;2024-01-11T16:09:52;6.40;9.40
418;DHT22;49;48.530;9.200;2024-01-11T16:12:19;5.80;11.70
418;DHT22;49;48.530;9.200;2024-01-11T16:14:46;6.00;15.20
418;DHT22;49;48.530;9.200;2024-01-11T16:17:13;5.70;14.70
418;DHT22;49;48.530;9.200;2024-01-11T16:19:41;6.50;19.10
418;DHT22;49;48.530;9.200;2024-01-11T16:22:08;6.80;18.20
418;DHT22;49;48.530;9.200;2024-01-11T16:24:34;7.30;18.40
418;DHT22;49;48.530;9.200;2024-01-11T16:27:03;7.60;16.70
418;DHT22;49;48.530;9.200;2024-01-11T16:29:32;7.60;16.30
418;DHT22;49;48.530;9.200;2024-01-11T16:32:00;7.30;8.90
418;DHT22;49;48.530;9.200;2024-01-11T16:34:27;6.40;13.80
418;DHT22;49;48.530;9.200;2024-01-11T16:36:54;7.00;17.70
418;DHT22;49;48.530;9.200;2024-01-11T16:39:21;6.60;13.50
418;DHT22;49;48.530;9.200;2024-01-11T16:41:48;7.10;13.40
418;DHT22;49;48.530;9.200;2024-01-11T16:44:16;6.20;9.30
418;DHT22;49;48.530;9.200;2024-01-11T16:46:43;5.80;15.40
418;DHT22;49;48.530;9.200;2024-01-11T16:49:11;6.40;17.00
418;DHT22;49;48.530;9.200;2024-01-11T16:51:42;5.60;10.10
418;DHT22;49;48.530;9.200;2024-01-11T16:54:09;5.00;19.60
418;DHT22;49;48.530;9.200;2024-01-11T16:56:36;6.20;25.30
418;DHT22;49;48.530;9.200;2024-01-11T16:59:03;6.80;20.10
418;DHT22;49;48.530;9.200;2024-01-11T17:01:32;7.30;14.90
418;DHT22;49;48.530;9.200;2024-01-11T17:03:59;6.70;14.20
418;DHT22;49;48.530;9.200;2024-01-11T17:06:26;6.40;12.50
418;DHT22;49;48.530;9.200;2024-01-11T17:08:53;6.00;11.20
418;DHT22;49;48.530;9.200;2024-01-11T17:11:21;6.60;21.40
418;DHT22;49;48.530;9.200;2024-01-11T17:13:48;6.30;9.40
418;DHT22;49;48.530;9.200;2024-01-11T17:16:19;5.80;17.80
418;DHT22;49;48.530;9.200;2024-01-11T17:18:47;6.40;15.20
418;DHT22;49;48.530;9.200;2024-01-11T17:21:15;5.80;13.40
418;DHT22;49;48.530;9.200;2024-01-11T17:23:42;5.20;10.00